createdAt,value
2019-05-22T00:00:29.918Z,12.55
2019-05-22T00:03:00.956Z,12.52
2019-05-22T00:05:34.728Z,12.52
2019-05-22T00:08:05.237Z,12.57
2019-05-22T00:10:34.731Z,12.61
2019-05-22T00:13:04.563Z,12.55
2019-05-22T00:15:33.400Z,12.51
2019-05-22T00:18:03.736Z,12.54
2019-05-22T00:20:33.518Z,12.51
2019-05-22T00:23:05.338Z,12.48
2019-05-22T00:25:35.534Z,12.45
2019-05-22T00:28:04.641Z,12.44
2019-05-22T00:30:40.802Z,12.48
2019-05-22T00:33:11.261Z,12.44
2019-05-22T00:35:41.568Z,12.50
2019-05-22T00:38:11.632Z,12.55
2019-05-22T00:40:45.356Z,12.50
2019-05-22T00:43:17.139Z,12.48
2019-05-22T00:45:48.908Z,12.49
2019-05-22T00:48:20.541Z,12.50
2019-05-22T00:51:04.485Z,12.13
2019-05-22T00:53:47.605Z,12.38
2019-05-22T00:56:35.438Z,12.40
2019-05-22T00:59:11.367Z,12.35
2019-05-22T01:01:55.590Z,12.39
2019-05-22T01:04:25.704Z,12.41
2019-05-22T01:06:55.440Z,12.40
2019-05-22T01:09:26.219Z,12.41
2019-05-22T01:11:55.669Z,12.43
2019-05-22T01:14:25.137Z,12.49
2019-05-22T01:16:53.642Z,12.45
2019-05-22T01:19:23.990Z,12.39
2019-05-22T01:21:54.500Z,12.41
2019-05-22T01:24:24.334Z,12.42
2019-05-22T01:26:54.881Z,12.43
2019-05-22T01:29:24.936Z,12.42
2019-05-22T01:32:06.922Z,12.42
2019-05-22T01:34:37.249Z,12.42
2019-05-22T01:37:07.822Z,12.41
2019-05-22T01:39:46.872Z,12.44
2019-05-22T01:42:18.462Z,12.43
2019-05-22T01:45:01.527Z,12.38
2019-05-22T01:47:26.714Z,12.40
2019-05-22T01:49:56.313Z,12.41
2019-05-22T01:52:27.083Z,12.40
2019-05-22T01:54:57.561Z,12.41
2019-05-22T01:57:28.315Z,12.45
2019-05-22T01:59:58.163Z,12.46
2019-05-22T02:02:26.569Z,12.50
2019-05-22T02:04:58.386Z,12.44
2019-05-22T02:07:29.104Z,12.45
2019-05-22T02:09:59.316Z,12.43
2019-05-22T02:12:44.167Z,12.45
2019-05-22T02:15:13.042Z,12.48
2019-05-22T02:17:41.833Z,12.43
2019-05-22T02:20:11.079Z,12.40
2019-05-22T02:22:40.776Z,12.38
2019-05-22T02:25:12.795Z,12.43
2019-05-22T02:27:41.744Z,12.39
2019-05-22T02:30:10.864Z,12.36
2019-05-22T02:32:40.995Z,12.33
2019-05-22T02:35:10.349Z,12.36
2019-05-22T02:37:39.241Z,12.37
2019-05-22T02:40:20.169Z,12.46
2019-05-22T02:42:50.611Z,12.36
2019-05-22T02:45:20.572Z,12.38
2019-05-22T02:47:50.218Z,12.37
2019-05-22T02:50:19.961Z,12.30
2019-05-22T02:52:49.535Z,12.31
2019-05-22T02:55:18.120Z,12.33
2019-05-22T02:57:46.580Z,12.33
2019-05-22T03:00:16.881Z,12.31
2019-05-22T03:02:50.367Z,12.28
2019-05-22T03:05:20.737Z,12.26
2019-05-22T03:07:49.211Z,12.31
2019-05-22T03:10:20.329Z,12.23
2019-05-22T03:12:50.845Z,12.21
2019-05-22T03:15:23.370Z,12.20
2019-05-22T03:17:55.109Z,12.29
2019-05-22T03:20:24.506Z,12.25
2019-05-22T03:23:18.781Z,12.30
2019-05-22T03:28:36.583Z,12.30
2019-05-22T03:31:06.737Z,12.25
2019-05-22T03:33:35.761Z,12.18
2019-05-22T03:36:10.525Z,12.23
2019-05-22T03:38:41.199Z,12.23
2019-05-22T03:41:12.491Z,12.21
2019-05-22T03:43:44.907Z,12.17
2019-05-22T03:46:22.186Z,12.17
2019-05-22T03:48:51.198Z,12.17
2019-05-22T03:51:20.130Z,12.21
2019-05-22T03:53:49.988Z,12.20
2019-05-22T03:56:20.382Z,12.22
2019-05-22T03:58:49.030Z,12.28
2019-05-22T04:01:19.375Z,12.21
2019-05-22T04:03:48.228Z,12.26
2019-05-22T04:06:18.488Z,12.29
2019-05-22T04:08:47.270Z,12.24
2019-05-22T04:11:16.218Z,12.21
2019-05-22T04:13:44.684Z,12.20
2019-05-22T04:16:17.604Z,12.14
2019-05-22T04:18:47.144Z,12.14
2019-05-22T04:21:16.144Z,12.08
2019-05-22T04:23:44.552Z,12.10
2019-05-22T04:26:14.678Z,12.08
2019-05-22T04:28:49.197Z,12.11
2019-05-22T04:31:18.522Z,12.11
2019-05-22T04:33:47.484Z,12.07
2019-05-22T04:36:16.538Z,12.15
2019-05-22T04:38:46.164Z,12.14
2019-05-22T04:41:15.100Z,12.13
2019-05-22T04:43:43.732Z,12.15
2019-05-22T04:46:12.806Z,12.14
2019-05-22T04:48:46.109Z,12.16
2019-05-22T04:51:25.467Z,12.16
2019-05-22T04:53:54.754Z,12.18
2019-05-22T04:56:24.235Z,12.21
2019-05-22T04:58:54.619Z,12.30
2019-05-22T05:01:23.834Z,12.26
2019-05-22T05:03:53.491Z,12.22
2019-05-22T05:06:24.318Z,12.18
2019-05-22T05:08:52.961Z,12.26
2019-05-22T05:11:21.857Z,12.32
2019-05-22T05:13:50.373Z,12.29
2019-05-22T05:16:18.926Z,12.26
2019-05-22T05:18:47.363Z,12.35
2019-05-22T05:21:16.039Z,12.40
2019-05-22T05:23:44.675Z,12.38
2019-05-22T05:26:13.679Z,12.38
2019-05-22T05:28:42.802Z,12.44
2019-05-22T05:31:12.004Z,12.36
2019-05-22T05:33:49.494Z,12.36
2019-05-22T05:36:18.081Z,12.41
2019-05-22T05:38:47.145Z,12.47
2019-05-22T05:41:16.153Z,12.43
2019-05-22T05:43:44.929Z,12.41
2019-05-22T05:46:13.473Z,12.43
2019-05-22T05:48:42.909Z,12.35
2019-05-22T05:51:20.268Z,12.34
2019-05-22T05:53:58.460Z,12.31
2019-05-22T05:56:30.191Z,12.31
2019-05-22T05:59:00.304Z,12.31
2019-05-22T06:01:30.417Z,12.36
2019-05-22T06:04:00.409Z,12.39
2019-05-22T06:06:34.803Z,12.43
2019-05-22T06:09:05.128Z,12.38
2019-05-22T06:11:53.085Z,12.37
2019-05-22T06:14:25.066Z,12.37
2019-05-22T06:17:23.470Z,12.34
2019-05-22T06:19:55.635Z,12.43
2019-05-22T06:22:24.091Z,12.57
2019-05-22T06:25:01.969Z,12.51
2019-05-22T06:27:42.966Z,12.50
2019-05-22T06:30:16.554Z,12.44
2019-05-22T06:33:09.451Z,12.43
2019-05-22T06:35:38.683Z,12.51
2019-05-22T06:38:19.053Z,12.55
2019-05-22T06:40:49.360Z,12.66
2019-05-22T06:43:21.741Z,12.73
2019-05-22T06:45:50.276Z,12.75
2019-05-22T06:48:18.747Z,12.78
2019-05-22T06:50:49.449Z,12.78
2019-05-22T06:53:18.019Z,12.73
2019-05-22T06:55:46.443Z,12.74
2019-05-22T06:58:14.864Z,12.69
2019-05-22T07:00:43.851Z,12.68
2019-05-22T07:03:12.410Z,12.67
2019-05-22T07:05:41.654Z,12.79
2019-05-22T07:08:10.591Z,12.73
2019-05-22T07:10:39.749Z,12.73
2019-05-22T07:13:11.061Z,12.75
2019-05-22T07:15:42.437Z,12.79
2019-05-22T07:18:13.229Z,12.76
2019-05-22T07:20:42.627Z,12.68
2019-05-22T07:23:15.180Z,12.68
2019-05-22T07:25:44.987Z,12.82
2019-05-22T07:28:15.495Z,12.79
2019-05-22T07:30:44.952Z,12.78
2019-05-22T07:33:13.781Z,12.77
2019-05-22T07:36:04.855Z,12.78
2019-05-22T07:38:14.741Z,12.81
2019-05-22T07:40:44.644Z,12.76
2019-05-22T07:43:13.938Z,12.70
2019-05-22T07:45:42.519Z,12.70
2019-05-22T07:48:13.233Z,12.66
2019-05-22T07:50:48.094Z,12.72
2019-05-22T07:53:18.859Z,12.70
2019-05-22T07:55:49.093Z,12.69
2019-05-22T07:58:18.458Z,12.70
2019-05-22T08:00:51.102Z,12.82
2019-05-22T08:03:21.504Z,12.79
2019-05-22T08:05:55.077Z,12.87
2019-05-22T08:08:24.986Z,12.92
2019-05-22T08:10:54.638Z,12.95
2019-05-22T08:13:23.840Z,13.00
2019-05-22T08:15:52.477Z,13.02
2019-05-22T08:18:21.856Z,13.00
2019-05-22T08:20:50.914Z,12.91
2019-05-22T08:23:20.082Z,12.75
2019-05-22T08:25:48.802Z,12.66
2019-05-22T08:28:19.875Z,12.57
2019-05-22T08:30:49.486Z,12.58
2019-05-22T08:33:21.384Z,12.67
2019-05-22T08:35:50.856Z,12.70
2019-05-22T08:38:23.617Z,12.74
2019-05-22T08:40:52.931Z,12.72
2019-05-22T08:43:22.360Z,12.72
2019-05-22T08:45:50.781Z,12.72
2019-05-22T08:48:20.727Z,12.76
2019-05-22T08:50:50.203Z,12.82
2019-05-22T08:53:19.762Z,12.82
2019-05-22T08:55:49.202Z,12.90
2019-05-22T08:58:18.817Z,12.97
2019-05-22T09:00:48.555Z,13.16
2019-05-22T09:03:17.457Z,13.31
2019-05-22T09:05:46.463Z,13.43
2019-05-22T09:08:14.992Z,13.49
2019-05-22T09:10:43.991Z,13.47
2019-05-22T09:13:12.557Z,13.44
2019-05-22T09:15:41.214Z,13.34
2019-05-22T09:18:10.220Z,13.33
2019-05-22T09:20:48.952Z,13.37
2019-05-22T09:23:09.650Z,13.37
2019-05-22T09:25:38.493Z,13.46
2019-05-22T09:28:07.182Z,13.50
2019-05-22T09:30:37.054Z,13.46
2019-05-22T09:33:06.325Z,13.57
2019-05-22T09:35:35.252Z,13.64
2019-05-22T09:38:03.988Z,13.61
2019-05-22T09:40:32.900Z,13.67
2019-05-22T09:43:03.614Z,13.63
2019-05-22T09:45:32.563Z,13.55
2019-05-22T09:48:01.489Z,13.46
2019-05-22T09:50:30.123Z,13.49
2019-05-22T09:52:58.865Z,13.54
2019-05-22T09:55:27.380Z,13.66
2019-05-22T10:00:32.715Z,13.68
2019-05-22T10:03:01.659Z,13.70
2019-05-22T10:05:30.902Z,13.71
2019-05-22T10:08:01.909Z,13.78
2019-05-22T10:10:31.171Z,13.88
2019-05-22T10:13:02.742Z,14.00
2019-05-22T10:15:32.391Z,14.13
2019-05-22T10:18:01.338Z,14.32
2019-05-22T10:20:29.809Z,14.43
2019-05-22T10:23:14.161Z,14.61
2019-05-22T10:25:28.933Z,15.00
2019-05-22T10:27:59.331Z,15.21
2019-05-22T10:30:28.218Z,15.39
2019-05-22T10:32:56.710Z,15.56
2019-05-22T10:35:26.840Z,15.47
2019-05-22T10:37:56.082Z,15.55
2019-05-22T10:40:25.200Z,15.63
2019-05-22T10:42:54.442Z,15.43
2019-05-22T10:45:22.882Z,15.43
2019-05-22T10:47:51.526Z,15.52
2019-05-22T10:50:20.256Z,15.53
2019-05-22T10:52:54.218Z,15.37
2019-05-22T10:55:20.541Z,15.15
2019-05-22T10:57:49.498Z,14.90
2019-05-22T11:00:20.014Z,14.88
2019-05-22T11:02:49.279Z,14.76
2019-05-22T11:05:20.296Z,14.64
2019-05-22T11:07:50.329Z,14.64
2019-05-22T11:10:21.075Z,14.57
2019-05-22T11:12:50.462Z,14.53
2019-05-22T11:15:19.577Z,14.51
2019-05-22T11:17:48.841Z,14.58
2019-05-22T11:20:18.361Z,14.59
2019-05-22T11:22:47.309Z,14.72
2019-05-22T11:25:17.421Z,14.87
2019-05-22T11:27:46.351Z,15.15
2019-05-22T11:30:16.731Z,15.35
2019-05-22T11:32:45.858Z,15.50
2019-05-22T11:35:16.139Z,15.77
2019-05-22T11:37:44.699Z,15.92
2019-05-22T11:40:14.302Z,16.06
2019-05-22T11:42:42.913Z,15.94
2019-05-22T11:45:13.049Z,15.76
2019-05-22T11:47:42.006Z,15.70
2019-05-22T11:50:12.625Z,15.65
2019-05-22T11:52:42.189Z,15.67
2019-05-22T11:55:13.716Z,15.92
2019-05-22T11:57:43.895Z,16.13
2019-05-22T12:00:13.647Z,16.39
2019-05-22T12:02:44.536Z,16.80
2019-05-22T12:05:15.312Z,17.28
2019-05-22T12:07:44.540Z,17.63
2019-05-22T12:10:15.099Z,18.09
2019-05-22T12:12:45.223Z,18.64
2019-05-22T12:15:15.770Z,19.22
2019-05-22T12:17:44.853Z,19.55
2019-05-22T12:20:14.410Z,20.02
2019-05-22T12:22:43.580Z,20.74
2019-05-22T12:25:15.573Z,21.47
2019-05-22T12:27:44.024Z,22.12
2019-05-22T12:30:14.713Z,22.25
2019-05-22T12:32:43.739Z,22.20
2019-05-22T12:35:15.213Z,22.34
2019-05-22T12:37:43.887Z,22.22
2019-05-22T12:40:15.619Z,21.70
2019-05-22T12:42:44.836Z,21.88
2019-05-22T12:45:14.358Z,21.86
2019-05-22T12:47:43.432Z,22.10
2019-05-22T12:50:14.891Z,22.39
2019-05-22T12:52:46.328Z,22.52
2019-05-22T12:55:16.125Z,22.98
2019-05-22T12:57:45.065Z,22.71
2019-05-22T13:00:13.864Z,22.83
2019-05-22T13:02:43.311Z,22.17
2019-05-22T13:05:14.543Z,22.06
2019-05-22T13:07:42.303Z,22.69
2019-05-22T13:10:11.511Z,23.06
2019-05-22T13:12:40.358Z,22.95
2019-05-22T13:15:10.995Z,22.78
2019-05-22T13:17:40.805Z,22.26
2019-05-22T13:20:10.101Z,21.49
2019-05-22T13:22:40.962Z,21.08
2019-05-22T13:25:12.439Z,21.21
2019-05-22T13:27:41.682Z,21.32
2019-05-22T13:30:12.910Z,21.31
2019-05-22T13:32:44.392Z,21.36
2019-05-22T13:35:15.177Z,21.54
2019-05-22T13:37:44.430Z,22.35
2019-05-22T13:40:27.251Z,22.76
2019-05-22T13:42:45.005Z,23.35
2019-05-22T13:45:28.533Z,23.36
2019-05-22T13:47:45.767Z,22.94
2019-05-22T13:50:17.332Z,22.21
2019-05-22T13:52:47.581Z,21.71
2019-05-22T13:55:17.581Z,22.00
2019-05-22T13:57:47.406Z,22.61
2019-05-22T14:00:19.213Z,22.89
2019-05-22T14:02:48.045Z,23.18
2019-05-22T14:05:18.118Z,22.79
2019-05-22T14:07:46.736Z,21.98
2019-05-22T14:10:16.665Z,22.04
2019-05-22T14:12:45.291Z,22.60
2019-05-22T14:15:14.437Z,22.74
2019-05-22T14:17:42.967Z,22.47
2019-05-22T14:20:12.082Z,22.08
2019-05-22T14:22:40.726Z,22.10
2019-05-22T14:25:09.845Z,22.00
2019-05-22T14:27:41.673Z,21.76
2019-05-22T14:30:11.746Z,21.33
2019-05-22T14:32:40.798Z,21.14
2019-05-22T14:35:11.378Z,21.59
2019-05-22T14:37:41.219Z,22.00
2019-05-22T14:40:11.937Z,22.27
2019-05-22T14:42:40.621Z,22.36
2019-05-22T14:45:09.609Z,22.61
2019-05-22T14:47:38.360Z,22.95
2019-05-22T14:50:08.482Z,22.97
2019-05-22T14:52:37.181Z,22.90
2019-05-22T14:55:09.629Z,22.78
2019-05-22T14:57:38.932Z,22.74
2019-05-22T15:00:10.372Z,22.79
2019-05-22T15:02:39.238Z,22.82
2019-05-22T15:05:08.688Z,22.47
2019-05-22T15:07:37.245Z,22.73
2019-05-22T15:10:08.712Z,22.81
2019-05-22T15:12:37.618Z,22.77
2019-05-22T15:15:08.198Z,22.62
2019-05-22T15:17:37.533Z,22.53
2019-05-22T15:20:10.329Z,22.54
2019-05-22T15:22:39.085Z,22.53
2019-05-22T15:25:09.255Z,22.13
2019-05-22T15:27:38.418Z,21.45
2019-05-22T15:30:11.631Z,21.33
2019-05-22T15:32:40.127Z,21.28
2019-05-22T15:35:09.896Z,20.97
2019-05-22T15:37:39.646Z,21.18
2019-05-22T15:40:10.778Z,21.46
2019-05-22T15:42:44.688Z,21.73
2019-05-22T15:45:19.704Z,21.77
2019-05-22T15:47:55.610Z,21.77
2019-05-22T15:50:26.910Z,21.66
2019-05-22T15:52:57.156Z,21.26
2019-05-22T15:55:30.029Z,21.92
2019-05-22T15:58:00.533Z,21.97
2019-05-22T16:00:35.538Z,22.01
2019-05-22T16:03:17.732Z,21.99
2019-05-22T16:05:48.200Z,21.79
2019-05-22T16:08:17.436Z,21.68
2019-05-22T16:10:47.354Z,21.49
2019-05-22T16:13:19.174Z,21.30
2019-05-22T16:15:49.925Z,21.23
2019-05-22T16:18:22.103Z,21.06
2019-05-22T16:20:50.780Z,20.90
2019-05-22T16:23:22.116Z,20.64
2019-05-22T16:25:52.781Z,20.38
2019-05-22T16:28:22.697Z,20.29
2019-05-22T16:30:52.354Z,20.18
2019-05-22T16:33:24.310Z,20.23
2019-05-22T16:35:53.354Z,20.34
2019-05-22T16:38:23.410Z,20.30
2019-05-22T16:40:52.085Z,20.31
2019-05-22T16:43:20.530Z,20.32
2019-05-22T16:45:49.074Z,20.31
2019-05-22T16:48:28.307Z,20.21
2019-05-22T16:50:48.210Z,20.00
2019-05-22T16:53:19.726Z,19.88
2019-05-22T16:55:49.744Z,19.85
2019-05-22T16:58:19.252Z,19.75
2019-05-22T17:00:49.826Z,19.67
2019-05-22T17:03:19.649Z,19.69
2019-05-22T17:05:48.333Z,19.72
2019-05-22T17:08:18.443Z,19.64
2019-05-22T17:10:48.392Z,19.63
2019-05-22T17:13:17.403Z,19.59
2019-05-22T17:15:46.314Z,19.54
2019-05-22T17:18:17.952Z,19.51
2019-05-22T17:20:47.533Z,19.50
2019-05-22T17:23:16.278Z,19.43
2019-05-22T17:25:45.202Z,19.30
2019-05-22T17:28:14.511Z,19.16
2019-05-22T17:30:43.799Z,19.06
2019-05-22T17:33:13.117Z,18.96
2019-05-22T17:35:42.392Z,18.92
2019-05-22T17:38:11.127Z,18.80
2019-05-22T17:40:41.373Z,18.74
2019-05-22T17:43:10.512Z,18.64
2019-05-22T17:45:42.853Z,18.53
2019-05-22T17:48:14.852Z,18.51
2019-05-22T17:50:44.964Z,18.46
2019-05-22T17:53:13.948Z,18.39
2019-05-22T17:55:42.913Z,18.24
2019-05-22T17:58:12.961Z,18.14
2019-05-22T18:00:49.639Z,18.12
2019-05-22T18:03:18.194Z,18.08
2019-05-22T18:05:47.797Z,18.01
2019-05-22T18:08:16.890Z,17.88
2019-05-22T18:10:48.697Z,17.79
2019-05-22T18:13:17.620Z,17.73
2019-05-22T18:15:46.737Z,17.71
2019-05-22T18:18:16.152Z,17.56
2019-05-22T18:20:44.680Z,17.41
2019-05-22T18:23:13.311Z,17.29
2019-05-22T18:25:42.912Z,17.20
2019-05-22T18:28:12.418Z,17.08
2019-05-22T18:30:44.434Z,17.02
2019-05-22T18:33:13.441Z,16.80
2019-05-22T18:35:42.121Z,16.72
2019-05-22T18:38:10.739Z,16.61
2019-05-22T18:40:39.249Z,16.47
2019-05-22T18:43:07.703Z,16.27
2019-05-22T18:45:37.248Z,16.22
2019-05-22T18:48:06.395Z,16.12
2019-05-22T18:50:36.120Z,15.94
2019-05-22T18:53:04.670Z,15.78
2019-05-22T18:55:33.142Z,15.67
2019-05-22T18:58:02.012Z,15.53
2019-05-22T19:00:32.337Z,15.44
2019-05-22T19:03:01.097Z,15.40
2019-05-22T19:05:32.223Z,15.20
2019-05-22T19:08:00.991Z,15.09
2019-05-22T19:10:29.820Z,15.04
2019-05-22T19:12:58.336Z,14.82
2019-05-22T19:15:27.206Z,14.65
2019-05-22T19:17:55.860Z,14.48
2019-05-22T19:20:24.422Z,14.32
2019-05-22T19:23:00.204Z,14.20
2019-05-22T19:25:23.356Z,14.21
2019-05-22T19:27:51.845Z,14.01
2019-05-22T19:30:21.708Z,13.84
2019-05-22T19:32:50.867Z,13.65
2019-05-22T19:35:19.526Z,13.48
2019-05-22T19:37:48.887Z,13.28
2019-05-22T19:40:18.601Z,13.14
2019-05-22T19:42:47.469Z,13.10
2019-05-22T19:45:17.727Z,13.02
2019-05-22T19:47:55.795Z,13.00
2019-05-22T19:50:25.282Z,12.85
2019-05-22T19:52:55.165Z,12.73
2019-05-22T19:55:25.949Z,12.56
2019-05-22T19:57:55.198Z,12.43
2019-05-22T20:03:46.055Z,12.31
2019-05-22T20:06:14.940Z,12.32
2019-05-22T20:08:44.965Z,12.34
2019-05-22T20:11:13.876Z,12.38
2019-05-22T20:13:43.631Z,12.37
2019-05-22T20:16:12.106Z,12.45
2019-05-22T20:18:41.275Z,12.55
2019-05-22T20:21:10.160Z,12.67
2019-05-22T20:23:38.595Z,12.71
2019-05-22T20:26:07.758Z,12.73
2019-05-22T20:28:38.232Z,12.29
2019-05-22T20:31:07.486Z,12.69
2019-05-22T20:33:36.307Z,12.66
2019-05-22T20:36:05.356Z,12.63
2019-05-22T20:38:34.022Z,12.57
2019-05-22T20:41:02.823Z,12.56
2019-05-22T20:43:31.748Z,12.40
2019-05-22T20:46:01.243Z,12.40
2019-05-22T20:48:30.081Z,12.34
2019-05-22T20:50:59.627Z,12.37
2019-05-22T20:53:30.289Z,12.35
2019-05-22T20:55:59.718Z,12.26
2019-05-22T20:58:30.438Z,12.22
2019-05-22T21:00:59.788Z,12.16
2019-05-22T21:03:30.483Z,12.11
2019-05-22T21:05:59.995Z,11.93
2019-05-22T21:08:29.085Z,11.84
2019-05-22T21:11:01.422Z,11.81
2019-05-22T21:13:31.705Z,11.76
2019-05-22T21:16:01.838Z,11.73
2019-05-22T21:18:31.878Z,11.68
2019-05-22T21:21:00.714Z,11.76
2019-05-22T21:23:29.662Z,11.68
2019-05-22T21:25:58.939Z,11.62
2019-05-22T21:28:28.062Z,11.57
2019-05-22T21:30:57.571Z,11.49
2019-05-22T21:33:26.326Z,11.53
2019-05-22T21:35:54.916Z,11.57
2019-05-22T21:38:23.643Z,11.59
2019-05-22T21:40:53.743Z,11.49
2019-05-22T21:43:22.708Z,11.41
2019-05-22T21:45:51.178Z,11.34
2019-05-22T21:48:20.708Z,11.31
2019-05-22T21:50:49.251Z,11.34
2019-05-22T21:53:18.109Z,11.31
2019-05-22T21:55:46.810Z,11.30
2019-05-22T21:58:16.054Z,11.30
2019-05-22T22:00:58.462Z,11.15
2019-05-22T22:03:46.540Z,10.97
2019-05-22T22:06:16.871Z,10.99
2019-05-22T22:08:46.001Z,11.06
2019-05-22T22:11:14.922Z,11.03
2019-05-22T22:13:43.716Z,10.92
2019-05-22T22:16:12.399Z,10.82
2019-05-22T22:18:41.139Z,10.76
2019-05-22T22:21:11.316Z,10.64
2019-05-22T22:23:40.140Z,10.66
2019-05-22T22:26:24.807Z,10.65
2019-05-22T22:28:40.290Z,10.61
2019-05-22T22:31:13.518Z,10.54
2019-05-22T22:33:45.270Z,10.47
2019-05-22T22:36:14.304Z,10.61
2019-05-22T22:38:42.961Z,10.58
2019-05-22T22:41:13.877Z,10.56
2019-05-22T22:43:44.855Z,10.52
2019-05-22T22:46:23.404Z,10.39
2019-05-22T22:48:55.318Z,10.23
2019-05-22T22:51:26.045Z,10.19
2019-05-22T22:53:56.432Z,10.13
2019-05-22T22:56:25.682Z,10.21
2019-05-22T22:58:54.394Z,10.21
2019-05-22T23:01:27.650Z,10.22
2019-05-22T23:03:59.109Z,10.28
2019-05-22T23:06:28.211Z,10.25
2019-05-22T23:08:56.742Z,10.25
2019-05-22T23:11:27.355Z,10.21
2019-05-22T23:13:57.099Z,10.32
2019-05-22T23:16:25.592Z,10.41
2019-05-22T23:19:16.939Z,10.48
2019-05-22T23:21:45.348Z,10.18
2019-05-22T23:24:14.264Z,10.18
2019-05-22T23:26:42.800Z,10.01
2019-05-22T23:29:12.545Z,9.89
2019-05-22T23:31:41.189Z,9.91
2019-05-22T23:34:10.125Z,9.96
2019-05-22T23:36:39.062Z,9.89
2019-05-22T23:39:12.779Z,9.89
2019-05-22T23:41:42.084Z,9.77
2019-05-22T23:44:12.293Z,9.73
2019-05-22T23:46:42.916Z,9.70
2019-05-22T23:49:12.535Z,9.64
2019-05-22T23:51:42.048Z,9.60
2019-05-22T23:54:10.849Z,9.69
2019-05-22T23:56:39.900Z,9.76
2019-05-22T23:59:09.539Z,9.68
